Terminal Aerodrome Forecast
Issued by NWS

Home | Current Version | Previous Version | Text Only | Print | Product List | Glossary Off
Versions: 1 2 3 4 5 6 7 8 9 10 11 12 13 14 15 16 17 18 19

000
FTUS43 KICT 062100 AAB
TAFHUT
TAF AMD
KHUT 062100Z 0621/0718 36016G23KT P6SM VCTS BKN035CB OVC060
     FM062300 35014G22KT P6SM VCTS OVC040CB
     FM070500 02014G20KT 6SM -SHRA VCTS OVC035CB=

USA.gov is the U.S. government's official web portal to all federal, state and local government web resources and services.